createdAt,value
2018-05-24T00:00:17.173Z,46.40
2018-05-24T00:01:17.184Z,46.52
2018-05-24T00:02:17.224Z,46.69
2018-05-24T00:03:17.233Z,46.88
2018-05-24T00:04:17.250Z,47.17
2018-05-24T00:05:17.276Z,47.46
2018-05-24T00:06:17.334Z,47.94
2018-05-24T00:07:17.317Z,47.85
2018-05-24T00:08:17.330Z,47.85
2018-05-24T00:09:17.351Z,48.13
2018-05-24T00:10:17.376Z,47.19
2018-05-24T00:11:17.420Z,46.98
2018-05-24T00:12:17.422Z,47.08
2018-05-24T00:13:17.452Z,47.85
2018-05-24T00:14:17.476Z,47.85
2018-05-24T00:15:17.501Z,48.13
2018-05-24T00:16:17.543Z,47.85
2018-05-24T00:17:17.520Z,47.65
2018-05-24T00:18:17.567Z,48.23
2018-05-24T00:19:17.600Z,48.13
2018-05-24T00:20:17.597Z,47.94
2018-05-24T00:21:17.622Z,48.52
2018-05-24T00:22:17.667Z,48.43
2018-05-24T00:23:17.670Z,47.75
2018-05-24T00:24:17.675Z,48.33
2018-05-24T00:25:17.693Z,48.61
2018-05-24T00:26:17.764Z,48.61
2018-05-24T00:27:17.733Z,49.38
2018-05-24T00:28:17.777Z,49.38
2018-05-24T00:29:17.794Z,49.10
2018-05-24T00:30:17.797Z,49.58
2018-05-24T00:31:17.821Z,48.90
2018-05-24T00:32:17.858Z,48.90
2018-05-24T00:33:17.858Z,49.29
2018-05-24T00:34:17.880Z,49.29
2018-05-24T00:35:17.925Z,50.32
2018-05-24T00:36:17.920Z,50.25
2018-05-24T00:37:17.955Z,49.94
2018-05-24T00:38:17.993Z,49.87
2018-05-24T00:39:17.990Z,50.15
2018-05-24T00:40:18.010Z,50.23
2018-05-24T00:41:18.021Z,50.45
2018-05-24T00:42:18.074Z,49.58
2018-05-24T00:43:18.070Z,49.46
2018-05-24T00:44:18.091Z,50.25
2018-05-24T00:45:18.120Z,50.25
2018-05-24T00:46:18.130Z,50.25
2018-05-24T00:47:18.153Z,49.87
2018-05-24T00:48:18.169Z,50.06
2018-05-24T00:49:18.211Z,50.13
2018-05-24T00:50:18.230Z,50.32
2018-05-24T00:51:18.234Z,49.96
2018-05-24T00:52:18.261Z,50.04
2018-05-24T00:53:18.279Z,50.45
2018-05-24T00:54:18.293Z,50.25
2018-05-24T00:55:18.318Z,50.06
2018-05-24T00:56:18.340Z,50.32
2018-05-24T00:57:18.387Z,50.81
2018-05-24T00:58:18.383Z,50.71
2018-05-24T00:59:18.429Z,50.81
2018-05-24T01:00:18.419Z,50.71
2018-05-24T01:01:18.439Z,50.99
2018-05-24T01:02:18.471Z,50.99
2018-05-24T01:03:18.493Z,51.09
2018-05-24T01:04:18.507Z,50.71
2018-05-24T01:05:18.522Z,51.38
2018-05-24T01:06:18.562Z,51.09
2018-05-24T01:07:18.594Z,51.38
2018-05-24T01:08:18.585Z,51.76
2018-05-24T01:09:18.613Z,50.83
2018-05-24T01:10:18.651Z,50.93
2018-05-24T01:11:18.653Z,51.19
2018-05-24T01:12:18.679Z,51.96
2018-05-24T01:13:18.691Z,51.29
2018-05-24T01:14:18.718Z,51.26
2018-05-24T01:15:18.734Z,51.86
2018-05-24T01:16:18.763Z,52.63
2018-05-24T01:17:18.777Z,52.15
2018-05-24T01:18:18.793Z,53.02
2018-05-24T01:19:18.831Z,52.63
2018-05-24T01:20:18.839Z,52.73
2018-05-24T01:21:18.861Z,52.34
2018-05-24T01:22:18.881Z,52.25
2018-05-24T01:23:18.908Z,52.25
2018-05-24T01:24:18.930Z,52.25
2018-05-24T01:25:18.941Z,52.25
2018-05-24T01:26:18.978Z,52.80
2018-05-24T01:27:19.014Z,53.02
2018-05-24T01:28:19.002Z,52.89
2018-05-24T01:29:19.039Z,52.70
2018-05-24T01:30:19.057Z,53.11
2018-05-24T01:31:19.067Z,52.73
2018-05-24T01:32:19.085Z,52.63
2018-05-24T01:33:19.113Z,52.80
2018-05-24T01:34:19.176Z,52.83
2018-05-24T01:35:19.177Z,52.83
2018-05-24T01:36:19.186Z,52.83
2018-05-24T01:37:19.198Z,53.02
2018-05-24T01:38:19.223Z,52.73
2018-05-24T01:39:19.253Z,53.66
2018-05-24T01:40:19.252Z,53.78
2018-05-24T01:41:19.287Z,52.44
2018-05-24T01:42:19.295Z,52.63
2018-05-24T01:43:19.322Z,52.80
2018-05-24T01:44:19.341Z,53.09
2018-05-24T01:45:19.372Z,54.05
2018-05-24T01:46:19.388Z,53.88
2018-05-24T01:47:19.405Z,52.70
2018-05-24T01:48:19.423Z,53.11
2018-05-24T01:49:19.459Z,52.83
2018-05-24T01:50:19.468Z,52.61
2018-05-24T01:51:19.484Z,54.17
2018-05-24T01:52:19.525Z,53.66
2018-05-24T01:53:19.522Z,53.66
2018-05-24T01:54:19.542Z,53.50
2018-05-24T01:55:19.565Z,53.59
2018-05-24T01:56:19.601Z,53.59
2018-05-24T01:57:19.683Z,53.02
2018-05-24T01:58:19.640Z,54.05
2018-05-24T01:59:19.653Z,53.47
2018-05-24T02:00:19.723Z,53.59
2018-05-24T02:01:19.696Z,54.43
2018-05-24T02:02:19.728Z,54.43
2018-05-24T02:03:19.731Z,53.86
2018-05-24T02:04:19.776Z,53.78
2018-05-24T02:05:19.775Z,53.96
2018-05-24T02:06:19.795Z,54.34
2018-05-24T02:07:19.817Z,54.91
2018-05-24T02:08:19.836Z,54.72
2018-05-24T02:09:19.864Z,55.01
2018-05-24T02:10:19.900Z,54.63
2018-05-24T02:11:19.910Z,55.40
2018-05-24T02:12:19.941Z,54.82
2018-05-24T02:13:19.949Z,54.79
2018-05-24T02:14:19.962Z,55.66
2018-05-24T02:15:19.991Z,54.99
2018-05-24T02:16:19.999Z,55.98
2018-05-24T02:17:20.022Z,55.11
2018-05-24T02:18:20.041Z,55.76
2018-05-24T02:19:20.058Z,55.94
2018-05-24T02:20:20.093Z,56.43
2018-05-24T02:21:20.112Z,56.52
2018-05-24T02:22:20.125Z,56.33
2018-05-24T02:23:20.145Z,55.88
2018-05-24T02:24:20.162Z,55.98
2018-05-24T02:25:20.203Z,55.11
2018-05-24T02:26:20.226Z,55.11
2018-05-24T02:27:20.230Z,55.20
2018-05-24T02:28:20.283Z,55.76
2018-05-24T02:29:20.269Z,56.14
2018-05-24T02:30:20.315Z,55.66
2018-05-24T02:31:20.316Z,55.66
2018-05-24T02:32:20.346Z,56.52
2018-05-24T02:33:20.360Z,56.33
2018-05-24T02:34:20.376Z,56.62
2018-05-24T02:35:20.396Z,56.33
2018-05-24T02:36:20.416Z,56.43
2018-05-24T02:37:20.446Z,56.43
2018-05-24T02:38:20.461Z,56.14
2018-05-24T02:39:20.472Z,55.76
2018-05-24T02:40:20.497Z,55.94
2018-05-24T02:41:20.516Z,56.04
2018-05-24T02:42:20.540Z,56.23
2018-05-24T02:43:20.569Z,56.43
2018-05-24T02:44:20.580Z,56.81
2018-05-24T02:45:20.595Z,56.30
2018-05-24T02:46:20.624Z,57.10
2018-05-24T02:47:20.636Z,56.81
2018-05-24T02:48:20.663Z,56.62
2018-05-24T02:49:20.716Z,57.26
2018-05-24T02:50:20.695Z,57.39
2018-05-24T02:51:20.734Z,56.91
2018-05-24T02:52:20.745Z,56.71
2018-05-24T02:53:20.762Z,56.43
2018-05-24T02:54:20.790Z,56.98
2018-05-24T02:55:20.799Z,56.88
2018-05-24T02:56:20.908Z,57.20
2018-05-24T02:57:20.844Z,57.10
2018-05-24T02:58:20.871Z,57.58
2018-05-24T02:59:20.885Z,56.91
2018-05-24T03:00:20.899Z,56.91
2018-05-24T03:01:20.927Z,57.29
2018-05-24T03:02:20.945Z,57.20
2018-05-24T03:03:20.964Z,57.20
2018-05-24T03:04:21.049Z,57.75
2018-05-24T03:05:21.011Z,57.39
2018-05-24T03:06:21.032Z,57.55
2018-05-24T03:07:21.049Z,58.13
2018-05-24T03:08:21.079Z,57.75
2018-05-24T03:09:21.090Z,57.65
2018-05-24T03:10:21.122Z,58.42
2018-05-24T03:11:21.125Z,58.80
2018-05-24T03:12:21.150Z,58.42
2018-05-24T03:13:21.164Z,57.75
2018-05-24T03:14:21.233Z,58.32
2018-05-24T03:15:21.211Z,58.80
2018-05-24T03:16:21.232Z,58.42
2018-05-24T03:17:21.254Z,58.89
2018-05-24T03:18:21.279Z,58.99
2018-05-24T03:19:21.305Z,58.42
2018-05-24T03:20:21.318Z,57.93
2018-05-24T03:21:21.338Z,58.13
2018-05-24T03:22:21.379Z,58.13
2018-05-24T03:23:21.388Z,57.93
2018-05-24T03:24:21.398Z,58.32
2018-05-24T03:25:21.447Z,59.09
2018-05-24T03:26:21.437Z,59.28
2018-05-24T03:27:21.465Z,59.09
2018-05-24T03:28:21.493Z,58.70
2018-05-24T03:29:21.509Z,58.99
2018-05-24T03:30:21.520Z,58.70
2018-05-24T03:31:21.539Z,60.05
2018-05-24T03:32:21.585Z,59.95
2018-05-24T03:33:21.587Z,59.28
2018-05-24T03:34:21.598Z,59.09
2018-05-24T03:35:21.709Z,60.21
2018-05-24T03:36:21.671Z,60.60
2018-05-24T03:37:21.677Z,60.50
2018-05-24T03:38:21.682Z,60.24
2018-05-24T03:39:21.707Z,60.43
2018-05-24T03:40:21.723Z,60.21
2018-05-24T03:41:21.745Z,60.72
2018-05-24T03:42:21.756Z,60.14
2018-05-24T03:43:21.776Z,59.66
2018-05-24T03:44:21.797Z,60.14
2018-05-24T03:45:21.821Z,60.02
2018-05-24T03:46:21.858Z,60.21
2018-05-24T03:47:21.863Z,60.05
2018-05-24T03:48:21.879Z,59.47
2018-05-24T03:49:21.900Z,59.92
2018-05-24T03:50:21.935Z,60.14
2018-05-24T03:51:21.946Z,60.02
2018-05-24T03:52:21.961Z,60.50
2018-05-24T03:53:21.990Z,61.36
2018-05-24T03:54:22.006Z,60.53
2018-05-24T03:55:22.028Z,60.91
2018-05-24T03:56:22.047Z,59.95
2018-05-24T03:57:22.061Z,60.34
2018-05-24T03:58:22.080Z,60.53
2018-05-24T03:59:22.129Z,59.86
2018-05-24T04:00:22.121Z,59.86
2018-05-24T04:01:22.160Z,59.66
2018-05-24T04:02:22.162Z,60.05
2018-05-24T04:03:22.201Z,59.31
2018-05-24T04:04:22.207Z,58.83
2018-05-24T04:05:22.236Z,58.83
2018-05-24T04:06:22.257Z,58.89
2018-05-24T04:07:22.277Z,59.28
2018-05-24T04:08:22.314Z,59.19
2018-05-24T04:09:22.321Z,59.76
2018-05-24T04:10:22.345Z,60.53
2018-05-24T04:11:22.361Z,60.05
2018-05-24T04:12:22.379Z,59.66
2018-05-24T04:13:22.429Z,59.57
2018-05-24T04:14:22.412Z,59.02
2018-05-24T04:15:22.429Z,59.28
2018-05-24T04:16:22.540Z,58.80
2018-05-24T04:17:22.477Z,59.86
2018-05-24T04:18:22.496Z,58.92
2018-05-24T04:19:22.549Z,59.19
2018-05-24T04:20:22.543Z,60.24
2018-05-24T04:21:22.579Z,59.66
2018-05-24T04:22:22.577Z,59.02
2018-05-24T04:23:22.707Z,59.22
2018-05-24T04:24:22.628Z,58.64
2018-05-24T04:25:22.657Z,59.12
2018-05-24T04:26:22.668Z,59.41
2018-05-24T04:27:22.686Z,59.31
2018-05-24T04:28:22.713Z,59.50
2018-05-24T04:29:22.754Z,59.41
2018-05-24T04:30:22.740Z,59.02
2018-05-24T04:31:22.768Z,58.99
2018-05-24T04:32:22.793Z,60.91
2018-05-24T04:33:22.802Z,60.91
2018-05-24T04:34:22.825Z,60.63
2018-05-24T04:35:22.845Z,61.30
2018-05-24T04:36:22.884Z,61.11
2018-05-24T04:37:22.886Z,61.49
2018-05-24T04:38:22.911Z,62.26
2018-05-24T04:39:22.951Z,60.94
2018-05-24T04:40:22.958Z,60.46
2018-05-24T04:41:23.003Z,59.60
2018-05-24T04:42:22.989Z,60.56
2018-05-24T04:43:23.036Z,60.94
2018-05-24T04:44:23.040Z,61.30
2018-05-24T04:45:23.145Z,60.94
2018-05-24T04:46:23.071Z,60.08
2018-05-24T04:47:23.099Z,60.17
2018-05-24T04:48:23.117Z,60.59
2018-05-24T04:49:23.143Z,60.17
2018-05-24T04:50:23.158Z,60.27
2018-05-24T04:51:23.188Z,61.07
2018-05-24T04:52:23.209Z,59.63
2018-05-24T04:53:23.235Z,59.82
2018-05-24T04:54:23.251Z,58.70
2018-05-24T04:55:23.268Z,57.37
2018-05-24T04:56:23.299Z,57.37
2018-05-24T04:57:23.335Z,56.92
2018-05-24T04:58:23.325Z,55.31
2018-05-24T04:59:23.349Z,54.93
2018-05-24T05:00:23.373Z,54.44
2018-05-24T05:01:23.399Z,54.44
2018-05-24T05:02:23.417Z,53.61
2018-05-24T05:03:23.451Z,55.19
2018-05-24T05:04:23.463Z,54.35
2018-05-24T05:05:23.482Z,54.83
2018-05-24T05:06:23.509Z,53.77
2018-05-24T05:07:23.532Z,54.44
2018-05-24T05:08:23.562Z,54.44
2018-05-24T05:09:23.589Z,54.35
2018-05-24T05:10:23.599Z,55.48
2018-05-24T05:11:23.626Z,55.83
2018-05-24T05:12:23.653Z,55.83
2018-05-24T05:13:23.677Z,56.48
2018-05-24T05:14:23.685Z,56.92
2018-05-24T05:15:23.719Z,55.96
2018-05-24T05:16:23.740Z,56.15
2018-05-24T05:17:23.747Z,56.22
2018-05-24T05:18:23.787Z,56.44
2018-05-24T05:19:23.869Z,55.77
2018-05-24T05:20:23.826Z,55.19
2018-05-24T05:21:23.867Z,56.05
2018-05-24T05:22:23.883Z,57.09
2018-05-24T05:23:23.881Z,56.54
2018-05-24T05:24:23.907Z,56.54
2018-05-24T05:25:23.924Z,56.54
2018-05-24T05:26:23.969Z,55.87
2018-05-24T05:27:23.979Z,56.54
2018-05-24T05:28:23.997Z,57.31
2018-05-24T05:29:24.024Z,56.63
2018-05-24T05:30:24.033Z,57.60
2018-05-24T05:31:24.079Z,57.09
2018-05-24T05:32:24.082Z,57.18
2018-05-24T05:33:24.114Z,57.21
2018-05-24T05:34:24.127Z,57.12
2018-05-24T05:35:24.148Z,57.50
2018-05-24T05:36:24.179Z,57.57
2018-05-24T05:37:24.200Z,57.21
2018-05-24T05:38:24.217Z,58.05
2018-05-24T05:39:24.243Z,57.95
2018-05-24T05:40:24.253Z,59.20
2018-05-24T05:41:24.275Z,57.79
2018-05-24T05:42:24.297Z,57.57
2018-05-24T05:43:24.355Z,57.73
2018-05-24T05:44:24.343Z,58.53
2018-05-24T05:45:24.380Z,59.08
2018-05-24T05:46:24.383Z,58.70
2018-05-24T05:47:24.415Z,59.20
2018-05-24T05:48:24.432Z,60.14
2018-05-24T05:49:24.458Z,60.91
2018-05-24T05:50:24.494Z,59.43
2018-05-24T05:51:24.502Z,57.14
2018-05-24T05:52:24.517Z,55.63
2018-05-24T05:53:24.557Z,55.27
2018-05-24T05:54:24.598Z,54.60
2018-05-24T05:55:24.607Z,53.75
2018-05-24T05:56:24.604Z,54.21
2018-05-24T05:57:24.636Z,52.81
2018-05-24T05:58:24.649Z,52.79
2018-05-24T05:59:24.672Z,53.20
2018-05-24T06:00:24.726Z,53.27
2018-05-24T06:01:24.740Z,54.88
2018-05-24T06:02:24.743Z,55.08
2018-05-24T06:03:24.776Z,54.69
2018-05-24T06:04:24.844Z,54.31
2018-05-24T06:05:24.808Z,54.88
2018-05-24T06:06:24.837Z,55.34
2018-05-24T06:07:24.850Z,55.92
2018-05-24T06:08:24.891Z,56.21
2018-05-24T06:09:24.910Z,56.47
2018-05-24T06:10:24.920Z,56.21
2018-05-24T06:11:24.948Z,56.66
2018-05-24T06:12:24.972Z,55.89
2018-05-24T06:13:24.983Z,56.57
2018-05-24T06:14:25.025Z,56.30
2018-05-24T06:15:25.071Z,56.37
2018-05-24T06:16:25.074Z,58.63
2018-05-24T06:17:25.074Z,58.63
2018-05-24T06:18:25.129Z,58.27
2018-05-24T06:19:25.134Z,58.95
2018-05-24T06:20:25.143Z,58.37
2018-05-24T06:21:25.173Z,57.98
2018-05-24T06:22:25.192Z,57.14
2018-05-24T06:23:25.243Z,56.40
2018-05-24T06:24:25.230Z,56.11
2018-05-24T06:25:25.292Z,56.11
2018-05-24T06:26:25.280Z,55.44
2018-05-24T06:27:25.295Z,54.79
2018-05-24T06:28:25.326Z,55.79
2018-05-24T06:29:25.381Z,56.69
2018-05-24T06:30:25.378Z,55.68
2018-05-24T06:31:25.393Z,53.59
2018-05-24T06:32:25.409Z,52.91
2018-05-24T06:33:25.427Z,53.37
2018-05-24T06:34:25.454Z,54.75
2018-05-24T06:35:25.484Z,52.65
2018-05-24T06:36:25.497Z,51.71
2018-05-24T06:37:25.519Z,50.70
2018-05-24T06:38:25.542Z,51.20
2018-05-24T06:39:25.593Z,52.39
2018-05-24T06:40:25.685Z,51.03
2018-05-24T06:41:25.609Z,51.13
2018-05-24T06:42:25.640Z,51.10
2018-05-24T06:43:25.663Z,51.13
2018-05-24T06:44:25.697Z,52.23
2018-05-24T06:45:25.711Z,52.75
2018-05-24T06:46:25.771Z,52.00
2018-05-24T06:47:25.761Z,52.70
2018-05-24T06:48:25.785Z,50.57
2018-05-24T06:49:25.834Z,49.90
2018-05-24T06:50:25.824Z,49.70
2018-05-24T06:51:25.845Z,49.34
2018-05-24T06:52:25.887Z,50.55
2018-05-24T06:53:25.906Z,49.80
2018-05-24T06:54:25.925Z,50.76
2018-05-24T06:55:25.938Z,51.03
2018-05-24T06:56:25.964Z,53.20
2018-05-24T06:57:25.995Z,53.61
2018-05-24T06:58:26.019Z,54.39
2018-05-24T06:59:26.055Z,53.78
2018-05-24T07:00:26.067Z,54.46
2018-05-24T07:01:26.083Z,54.00
2018-05-24T07:02:26.131Z,53.78
2018-05-24T07:03:26.139Z,54.82
2018-05-24T07:04:26.159Z,55.85
2018-05-24T07:05:26.182Z,57.27
2018-05-24T07:06:26.201Z,57.46
2018-05-24T07:07:26.239Z,56.36
2018-05-24T07:08:26.259Z,54.82
2018-05-24T07:09:26.270Z,54.55
2018-05-24T07:10:26.288Z,55.49
2018-05-24T07:11:26.326Z,56.46
2018-05-24T07:12:26.367Z,57.27
2018-05-24T07:13:26.366Z,56.62
2018-05-24T07:14:26.387Z,55.30
2018-05-24T07:15:26.409Z,56.07
2018-05-24T07:16:26.506Z,56.24
2018-05-24T07:17:26.464Z,55.78
2018-05-24T07:18:26.480Z,55.13
2018-05-24T07:19:26.496Z,55.63
2018-05-24T07:20:26.535Z,57.68
2018-05-24T07:21:26.548Z,56.62
2018-05-24T07:22:26.569Z,57.39
2018-05-24T07:23:26.618Z,57.39
2018-05-24T07:24:26.606Z,57.10
2018-05-24T07:25:26.645Z,56.94
2018-05-24T07:26:26.662Z,55.04
2018-05-24T07:27:26.683Z,55.35
2018-05-24T07:28:26.698Z,54.94
2018-05-24T07:29:26.726Z,55.16
2018-05-24T07:30:26.752Z,56.29
2018-05-24T07:31:26.774Z,55.33
2018-05-24T07:32:26.798Z,55.26
2018-05-24T07:33:26.810Z,55.71
2018-05-24T07:34:26.864Z,56.00
2018-05-24T07:35:26.857Z,56.74
2018-05-24T07:36:26.894Z,57.42
2018-05-24T07:37:26.920Z,57.62
2018-05-24T07:38:26.948Z,56.68
2018-05-24T07:39:26.948Z,55.81
2018-05-24T07:40:26.972Z,54.65
2018-05-24T07:41:27.023Z,56.36
2018-05-24T07:42:27.022Z,57.29
2018-05-24T07:43:27.050Z,57.49
2018-05-24T07:44:27.063Z,57.32
2018-05-24T07:45:27.096Z,56.36
2018-05-24T07:46:27.114Z,56.62
2018-05-24T07:47:27.137Z,56.26
2018-05-24T07:48:27.150Z,57.78
2018-05-24T07:49:27.192Z,56.74
2018-05-24T07:50:27.200Z,57.20
2018-05-24T07:51:27.229Z,57.78
2018-05-24T07:52:27.246Z,57.29
2018-05-24T07:53:27.264Z,58.17
2018-05-24T07:54:27.291Z,57.39
2018-05-24T07:55:27.351Z,59.39
2018-05-24T07:56:27.366Z,60.35
2018-05-24T07:57:27.363Z,61.03
2018-05-24T07:58:27.385Z,61.41
2018-05-24T07:59:27.399Z,61.96
2018-05-24T08:00:27.419Z,62.86
2018-05-24T08:01:27.451Z,61.90
2018-05-24T08:02:27.469Z,61.32
2018-05-24T08:03:27.525Z,62.48
2018-05-24T08:04:27.527Z,62.57
2018-05-24T08:05:27.533Z,63.24
2018-05-24T08:06:27.575Z,63.06
2018-05-24T08:07:27.576Z,62.86
2018-05-24T08:08:27.600Z,62.66
2018-05-24T08:09:27.622Z,61.51
2018-05-24T08:10:27.662Z,61.48
2018-05-24T08:11:27.671Z,61.96
2018-05-24T08:12:27.699Z,61.51
2018-05-24T08:13:27.743Z,61.80
2018-05-24T08:14:27.736Z,60.16
2018-05-24T08:15:27.763Z,60.55
2018-05-24T08:16:27.791Z,61.38
2018-05-24T08:17:27.800Z,61.71
2018-05-24T08:18:27.832Z,61.48
2018-05-24T08:19:27.837Z,61.80
2018-05-24T08:20:27.924Z,61.96
2018-05-24T08:21:27.925Z,63.31
2018-05-24T08:22:27.918Z,63.24
2018-05-24T08:23:27.923Z,63.12
2018-05-24T08:24:27.957Z,63.98
2018-05-24T08:25:27.973Z,62.57
2018-05-24T08:26:27.990Z,62.86
2018-05-24T08:27:28.052Z,60.80
2018-05-24T08:28:28.039Z,59.83
2018-05-24T08:29:28.063Z,60.35
2018-05-24T08:30:28.081Z,61.19
2018-05-24T08:31:28.109Z,60.35
2018-05-24T08:32:28.126Z,59.00
2018-05-24T08:33:28.142Z,59.28
2018-05-24T08:34:28.169Z,59.12
2018-05-24T08:35:28.193Z,57.60
2018-05-24T08:36:28.212Z,57.29
2018-05-24T08:37:28.240Z,59.12
2018-05-24T08:38:28.278Z,59.99
2018-05-24T08:39:28.284Z,58.45
2018-05-24T08:40:28.328Z,57.54
2018-05-24T08:41:28.350Z,56.83
2018-05-24T08:42:28.359Z,58.15
2018-05-24T08:43:28.367Z,57.70
2018-05-24T08:44:28.406Z,57.51
2018-05-24T08:45:28.437Z,57.38
2018-05-24T08:46:28.436Z,59.44
2018-05-24T08:47:28.511Z,57.84
2018-05-24T08:48:28.503Z,59.31
2018-05-24T08:49:28.503Z,58.15
2018-05-24T08:50:28.539Z,58.64
2018-05-24T08:51:28.558Z,58.18
2018-05-24T08:52:28.575Z,59.12
2018-05-24T08:53:28.653Z,58.28
2018-05-24T08:54:28.641Z,59.12
2018-05-24T08:55:28.683Z,58.57
2018-05-24T08:56:28.678Z,57.60
2018-05-24T08:57:28.715Z,59.19
2018-05-24T08:58:28.723Z,58.35
2018-05-24T08:59:28.742Z,58.28
2018-05-24T09:00:28.768Z,57.05
2018-05-24T09:01:28.936Z,57.12
2018-05-24T09:02:28.816Z,59.09
2018-05-24T09:03:28.861Z,60.18
2018-05-24T09:04:28.852Z,58.37
2018-05-24T09:05:28.875Z,58.47
2018-05-24T09:06:28.909Z,58.15
2018-05-24T09:07:28.945Z,59.28
2018-05-24T09:08:28.941Z,59.22
2018-05-24T09:09:28.997Z,58.67
2018-05-24T09:10:28.989Z,58.09
2018-05-24T09:11:29.023Z,58.57
2018-05-24T09:12:29.038Z,58.93
2018-05-24T09:13:29.077Z,60.16
2018-05-24T09:14:29.101Z,59.22
2018-05-24T09:15:29.118Z,59.02
2018-05-24T09:16:29.130Z,59.02
2018-05-24T09:17:29.152Z,61.09
2018-05-24T09:18:29.190Z,61.44
2018-05-24T09:19:29.196Z,61.28
2018-05-24T09:20:29.227Z,62.37
2018-05-24T09:21:29.253Z,62.76
2018-05-24T09:22:29.274Z,62.76
2018-05-24T09:23:29.311Z,61.99
2018-05-24T09:24:29.328Z,61.34
2018-05-24T09:25:29.339Z,60.57
2018-05-24T09:26:29.380Z,60.28
2018-05-24T09:27:29.381Z,60.47
2018-05-24T09:28:29.407Z,61.12
2018-05-24T09:29:29.496Z,62.82
2018-05-24T09:30:29.453Z,63.79
2018-05-24T09:31:29.517Z,64.28
2018-05-24T09:32:29.500Z,63.53
2018-05-24T09:33:29.522Z,63.43
2018-05-24T09:34:29.543Z,63.56
2018-05-24T09:35:29.582Z,63.31
2018-05-24T09:36:29.591Z,64.24
2018-05-24T09:37:29.610Z,65.59
2018-05-24T09:38:29.659Z,64.28
2018-05-24T09:39:29.686Z,63.05
2018-05-24T09:40:29.702Z,63.60
2018-05-24T09:41:29.702Z,63.02
2018-05-24T09:42:29.723Z,63.24
2018-05-24T09:43:29.762Z,63.95
2018-05-24T09:44:29.771Z,66.62
2018-05-24T09:45:29.795Z,67.00
2018-05-24T09:46:29.820Z,65.59
2018-05-24T09:47:29.849Z,64.56
2018-05-24T09:48:29.875Z,63.24
2018-05-24T09:49:29.877Z,64.79
2018-05-24T09:50:29.915Z,64.69
2018-05-24T09:51:29.967Z,64.11
2018-05-24T09:52:29.943Z,64.56
2018-05-24T09:53:29.970Z,65.53
2018-05-24T09:54:29.992Z,64.66
2018-05-24T09:55:30.014Z,63.70
2018-05-24T09:56:30.042Z,64.59
2018-05-24T09:57:30.075Z,63.89
2018-05-24T09:58:30.091Z,65.01
2018-05-24T09:59:30.105Z,65.98
2018-05-24T10:00:30.127Z,65.98
2018-05-24T10:01:30.178Z,65.78
2018-05-24T10:02:30.202Z,66.17
2018-05-24T10:03:30.193Z,67.55
2018-05-24T10:04:30.303Z,68.38
2018-05-24T10:05:30.266Z,69.19
2018-05-24T10:06:30.348Z,69.57
2018-05-24T10:07:30.293Z,68.93
2018-05-24T10:08:30.299Z,68.07
2018-05-24T10:09:30.342Z,68.26
2018-05-24T10:10:30.395Z,68.16
2018-05-24T10:11:30.386Z,67.88
2018-05-24T10:12:30.392Z,68.35
2018-05-24T10:13:30.412Z,67.10
2018-05-24T10:14:30.437Z,66.97
2018-05-24T10:15:30.454Z,68.07
2018-05-24T10:16:30.501Z,68.52
2018-05-24T10:17:30.522Z,68.52
2018-05-24T10:18:30.527Z,68.93
2018-05-24T10:19:30.577Z,69.48
2018-05-24T10:20:30.580Z,68.71
2018-05-24T10:21:30.632Z,69.57
2018-05-24T10:22:30.649Z,70.44
2018-05-24T10:23:30.717Z,70.60
2018-05-24T10:24:30.676Z,72.63
2018-05-24T10:25:30.678Z,73.30
2018-05-24T10:26:30.704Z,72.24
2018-05-24T10:27:30.735Z,72.66
2018-05-24T10:28:30.741Z,71.64
2018-05-24T10:29:30.791Z,71.31
2018-05-24T10:30:30.803Z,72.85
2018-05-24T10:31:30.838Z,72.37
2018-05-24T10:32:30.825Z,73.24
2018-05-24T10:33:30.868Z,73.91
2018-05-24T10:34:30.875Z,73.88
2018-05-24T10:35:30.919Z,75.23
2018-05-24T10:36:30.929Z,75.42
2018-05-24T10:37:30.940Z,75.16
2018-05-24T10:38:30.976Z,75.61
2018-05-24T10:39:31.013Z,75.51
2018-05-24T10:40:31.003Z,75.90
2018-05-24T10:41:31.042Z,77.06
2018-05-24T10:42:31.049Z,77.83
2018-05-24T10:43:31.071Z,76.18
2018-05-24T10:44:31.123Z,75.51
2018-05-24T10:45:31.106Z,78.23
2018-05-24T10:46:31.146Z,78.17
2018-05-24T10:47:31.158Z,77.40
2018-05-24T10:48:31.169Z,77.06
2018-05-24T10:49:31.198Z,75.96
2018-05-24T10:50:31.236Z,78.56
2018-05-24T10:51:31.242Z,79.43
2018-05-24T10:52:31.268Z,78.90
2018-05-24T10:53:31.281Z,79.48
2018-05-24T10:54:31.300Z,79.43
2018-05-24T10:55:31.333Z,79.48
2018-05-24T10:56:31.392Z,79.81
2018-05-24T10:57:31.367Z,78.59
2018-05-24T10:58:31.387Z,77.44
2018-05-24T10:59:31.521Z,78.61
2018-05-24T11:00:31.431Z,79.33
2018-05-24T11:01:31.458Z,80.19
2018-05-24T11:02:31.481Z,79.13
2018-05-24T11:03:31.495Z,79.03
2018-05-24T11:04:31.527Z,79.48
2018-05-24T11:05:31.555Z,79.71
2018-05-24T11:06:31.559Z,79.52
2018-05-24T11:07:31.600Z,79.86
2018-05-24T11:08:31.605Z,80.14
2018-05-24T11:09:31.622Z,80.04
2018-05-24T11:10:31.643Z,80.87
2018-05-24T11:11:31.698Z,81.12
2018-05-24T11:12:31.691Z,80.52
2018-05-24T11:13:31.708Z,79.90
2018-05-24T11:14:31.736Z,80.54
2018-05-24T11:15:31.771Z,81.25
2018-05-24T11:16:31.779Z,79.46
2018-05-24T11:17:31.805Z,79.69
2018-05-24T11:18:31.822Z,79.36
2018-05-24T11:19:31.838Z,78.25
2018-05-24T11:20:31.859Z,79.21
2018-05-24T11:21:31.885Z,79.36
2018-05-24T11:22:31.911Z,79.17
2018-05-24T11:23:31.927Z,81.45
2018-05-24T11:24:31.990Z,82.31
2018-05-24T11:25:31.970Z,81.79
2018-05-24T11:26:31.997Z,83.42
2018-05-24T11:27:32.031Z,81.45
2018-05-24T11:28:32.036Z,81.58
2018-05-24T11:29:32.059Z,80.87
2018-05-24T11:30:32.081Z,80.54
2018-05-24T11:31:32.108Z,83.77
2018-05-24T11:32:32.123Z,83.42
2018-05-24T11:33:32.161Z,81.98
2018-05-24T11:34:32.177Z,82.75
2018-05-24T11:35:32.199Z,83.09
2018-05-24T11:36:32.206Z,84.00
2018-05-24T11:37:32.228Z,83.52
2018-05-24T11:38:32.255Z,82.85
2018-05-24T11:39:32.275Z,84.29
2018-05-24T11:40:32.312Z,84.10
2018-05-24T11:41:32.314Z,83.96
2018-05-24T11:42:32.350Z,83.96
2018-05-24T11:43:32.488Z,84.10
2018-05-24T11:44:32.388Z,84.67
2018-05-24T11:45:32.397Z,85.31
2018-05-24T11:46:32.431Z,85.31
2018-05-24T11:47:32.453Z,84.48
2018-05-24T11:48:32.464Z,85.06
2018-05-24T11:49:32.482Z,85.78
2018-05-24T11:50:32.533Z,85.98
2018-05-24T11:51:32.526Z,85.78
2018-05-24T11:52:32.544Z,85.78
2018-05-24T11:53:32.567Z,86.85
2018-05-24T11:54:32.595Z,87.04
2018-05-24T11:55:32.610Z,85.54
2018-05-24T11:56:32.667Z,84.97
2018-05-24T11:57:32.666Z,84.67
2018-05-24T11:58:32.683Z,85.31
2018-05-24T11:59:32.700Z,86.36
2018-05-24T12:00:32.812Z,86.56
2018-05-24T12:01:32.735Z,87.23
2018-05-24T12:02:32.761Z,86.75
2018-05-24T12:03:32.778Z,86.36
2018-05-24T12:04:32.806Z,86.75
2018-05-24T12:05:32.822Z,85.98
2018-05-24T12:06:32.844Z,85.78
2018-05-24T12:07:32.867Z,87.04
2018-05-24T12:08:32.882Z,87.04
2018-05-24T12:09:32.906Z,87.23
2018-05-24T12:10:32.925Z,86.94
2018-05-24T12:11:32.954Z,86.61
2018-05-24T12:12:33.006Z,86.56
2018-05-24T12:13:33.003Z,86.61
2018-05-24T12:14:33.012Z,86.75
2018-05-24T12:15:33.030Z,88.24
2018-05-24T12:16:33.059Z,86.36
2018-05-24T12:17:33.074Z,86.27
2018-05-24T12:18:33.105Z,86.85
2018-05-24T12:19:33.144Z,88.06
2018-05-24T12:20:33.133Z,88.06
2018-05-24T12:21:33.157Z,87.81
2018-05-24T12:22:33.179Z,88.44
2018-05-24T12:23:33.192Z,88.44
2018-05-24T12:24:33.233Z,89.30
2018-05-24T12:25:33.265Z,89.40
2018-05-24T12:26:33.267Z,88.82
2018-05-24T12:27:33.301Z,89.30
2018-05-24T12:28:33.311Z,89.11
2018-05-24T12:29:33.337Z,87.96
2018-05-24T12:30:33.339Z,88.53
2018-05-24T12:31:33.361Z,89.30
2018-05-24T12:32:33.381Z,89.30
2018-05-24T12:33:33.404Z,89.50
2018-05-24T12:34:33.435Z,89.30
2018-05-24T12:35:33.473Z,89.78
2018-05-24T12:36:33.474Z,88.39
2018-05-24T12:37:33.499Z,86.85
2018-05-24T12:38:33.508Z,87.13
2018-05-24T12:39:33.527Z,88.06
2018-05-24T12:40:33.551Z,88.44
2018-05-24T12:41:33.644Z,88.06
2018-05-24T12:42:33.597Z,88.29
2018-05-24T12:43:33.632Z,86.65
2018-05-24T12:44:33.629Z,87.52
2018-05-24T12:45:33.652Z,86.75
2018-05-24T12:46:33.673Z,86.27
2018-05-24T12:47:33.712Z,86.94
2018-05-24T12:48:33.721Z,86.22
2018-05-24T12:49:33.744Z,84.77
2018-05-24T12:50:33.766Z,85.83
2018-05-24T12:51:33.796Z,87.42
2018-05-24T12:52:33.802Z,88.29